Observations for GLASGOW AIRPORT, United Kingdom (EGPF)

EGPF 100850Z VRB03KT 9000 MIFG NSC 00/00 Q1025  
EGPF 100820Z AUTO 03002KT 9000 NCD M01/M01 Q1025
EGPF 100750Z AUTO 08003KT 9999 NCD M00/M00 Q1025
EGPF 100720Z AUTO VRB01KT 9999 NCD M01/M01 Q1024
EGPF 100650Z AUTO 11003KT 9999 NCD M02/M02 Q1024
EGPF 100620Z AUTO 27002KT 9999 NCD M01/M01 Q1024
EGPF 100550Z 24004KT 9999 BCFG NSC M03/M03 Q1023
EGPF 100520Z 02003KT 9999 R23/1300 BCFG FEW002 M01/M01 Q1023
EGPF 100450Z 04002KT 4500 BR NSC M01/M01 Q1023  
EGPF 100420Z 32002KT 9999 R23/1200 BCFG NSC M01/M01 Q1023   
EGPF 100350Z VRB01KT 9999 R23/0600 BCFG FEW002 M02/M02 Q1022
EGPF 100320Z 20001KT 9999 R23/1000 BCFG NSC M01/M01 Q1022   
EGPF 100250Z VRB02KT 0900 R23/0900 FZFG NSC M02/M02 Q1022   
EGPF 100220Z 26002KT 1000 BCFG NCD M01/M01 Q1022
EGPF 100150Z AUTO 05002KT 9999 SCT042 M00/M01 Q1021 
EGPF 100120Z AUTO VRB02KT 9999 NCD M00/M01 Q1021
EGPF 100050Z AUTO VRB02KT 9999 NCD 00/M01 Q1021 
EGPF 100020Z AUTO 24002KT 9999 FEW043 02/01 Q1020   
EGPF 092350Z AUTO 22006KT 9999 SCT043 01/00 Q1020   
EGPF 092320Z AUTO 22005KT 9999 NCD 01/M00 Q1020 
EGPF 092250Z AUTO 17004KT 150V210 9999 NCD 02/00 Q1019  
EGPF 092220Z AUTO VRB02KT 9999 NCD 02/00 Q1019  
EGPF 092150Z AUTO VRB01KT 9999 NCD 02/01 Q1019  
EGPF 092120Z AUTO VRB02KT 9999 NCD 03/01 Q1018  
EGPF 092050Z AUTO 25005KT 230V310 9999 BKN038 03/01 Q1018   
EGPF 092020Z AUTO VRB03KT 9999 FEW040 BKN048 03/01 Q1018
EGPF 091950Z AUTO 25004KT 9999 NCD 03/01 Q1018  
EGPF 091920Z AUTO 21005KT 9999 NCD 03/01 Q1017  
EGPF 091850Z AUTO 22005KT 9999 NCD 02/00 Q1017  
EGPF 091820Z AUTO 22007KT 9999 NCD 01/M01 Q1016 
EGPF 091750Z AUTO 24004KT 9999 NCD 03/01 Q1016  
EGPF 091720Z AUTO VRB03KT 9999 NCD 03/01 Q1015  
EGPF 091650Z AUTO 29005KT 9999 NCD 04/01 Q1015  
EGPF 091620Z AUTO 31004KT 9999 NCD 04/02 Q1014  
EGPF 091550Z AUTO 30007KT 9999 NCD 05/02 Q1014  
EGPF 091520Z AUTO 28005KT 9999 NCD 05/02 Q1013  
EGPF 091450Z AUTO 27004KT 210V310 9999 NCD 06/02 Q1013  
EGPF 091420Z AUTO VRB03KT 9999 NCD 08/03 Q1012  
EGPF 091350Z AUTO 30007KT 9999 NCD 07/03 Q1012  
EGPF 091320Z AUTO 29008KT 9999 NCD 07/03 Q1011  
EGPF 091250Z AUTO 28008KT 240V310 9999 NCD 07/03 Q1010  
EGPF 091220Z AUTO 26011KT 230V290 9999 NCD 07/02 Q1010  
EGPF 091150Z AUTO 27004KT 230V320 9999 NCD 07/03 Q1010  
EGPF 091120Z AUTO 28009KT 9999 NCD 06/03 Q1009  
EGPF 091050Z AUTO 30010KT 9999 NCD 06/02 Q1008  
EGPF 091020Z AUTO VRB03KT 9999 NCD 05/02 Q1008  
EGPF 090950Z AUTO 28006KT 9999 NCD 04/02 Q1007  
EGPF 090920Z AUTO 24006KT 9999 NCD 02/01 Q1006  
EGPF 090850Z AUTO 26006KT 9999 NCD 02/02 Q1006  
EGPF 090820Z AUTO 27004KT 240V300 9999 NCD 01/01 Q1005